KSAN Airport Information

Runway Information
Runway 09 Length 9401 ft width 200 ft
Elevation 14 ft Threshold 700 ft Heading 106
Runway 27 Length 9401 ft Width 200 ft
Elevation 13 ft Threshold 1810 ft Heading 286
Airport Frequencies
Type A/D Name SOCAL APP/ Frequency 119.6 MHZ
Type ATIS Name ATIS Frequency 134.8 MHZ
Type CLD Name CLNC DEL Frequency 125.9 MHZ
Type GND Name GND Frequency 123.9 MHZ
Type MISC Name CG Frequency 157.15 MHZ
Type MISC Name CG Frequency 898.4 MHZ
Type TWR Name LINDBERGH Frequency 118.3 MHZ
Type UNIC Name UNICOM Frequency 122.95 MHZ
Airport Navaids
Type NDB Name Boing Frequency 245 KHZ
Airport Weather Information & NOTAM
ADDS - METARS form results

(2009 UTC 22 July 2018)
 
METAR text: KSAN 221951Z 31012KT 10SM FEW015 FEW050 SCT100 26/18 A3002 RMK AO2 SLP166 T02610183
Conditions at: KSAN (SAN DIEGO , CA, US) observed 1951 UTC 22 July 2018
Temperature: 26.1°C (79°F)
Dewpoint: 18.3°C (65°F) [RH = 62%]
Pressure (altimeter): 30.02 inches Hg (1016.7 mb)
[Sea-level pressure: 1016.6 mb]
Winds: from the NW (310 degrees) at 14 MPH (12 knots; 6.2 m/s)
Visibility: 10 or more miles (16+ km)
Ceiling: at least 12,000 feet AGL
Clouds: few clouds at 1500 feet AGL
few clouds at 5000 feet AGL
scattered clouds at 10000 feet AGL
Weather: no significant weather observed at this time